Time;durP1;ratioP1;P1;durP2;ratioP2;P2;SDS_P1;SDS_P2;PMS_P1;PMS_P2;Temp;Humidity;BMP_temperature;BMP_pressure;BME280_temperature;BME280_humidity;BME280_pressure;Samples;Min_cycle;Max_cycle;Signal;HPM_P1;HPM_P2
2021/09/04 00:00:07;;;;;;;21.77;7.55;;;;;;;;;;4990349;28;20050;-55
2021/09/04 00:02:35;;;;;;;20.35;8.02;;;;;;;;;;4962981;28;20127;-58
2021/09/04 00:05:01;;;;;;;21.00;7.63;;;;;;;;;;4952544;28;20051;-56
2021/09/04 00:07:30;;;;;;;18.23;6.88;;;;;;;;;;5006671;28;20041;-56
2021/09/04 00:09:58;;;;;;;20.58;8.20;;;;;;;;;;5006527;28;20065;-55
2021/09/04 00:12:25;;;;;;;18.83;7.13;;;;;;;;;;4982140;28;20045;-56
2021/09/04 00:14:52;;;;;;;18.33;7.50;;;;;;;;;;4985264;28;20065;-57
2021/09/04 00:17:19;;;;;;;18.60;7.78;;;;;;;;;;4978648;28;20059;-55
2021/09/04 00:19:45;;;;;;;20.15;7.57;;;;;;;;;;4969603;28;20035;-56
2021/09/04 00:22:12;;;;;;;18.30;8.23;;;;;;;;;;4967232;28;20055;-56
2021/09/04 00:24:38;;;;;;;17.25;7.50;;;;;;;;;;4986005;28;20075;-57
2021/09/04 00:27:24;;;;;;;19.08;7.47;;;;;;;;;;4988111;28;20037;-56
2021/09/04 00:29:52;;;;;;;18.20;7.53;;;;;;;;;;5026189;28;20049;-57
2021/09/04 00:32:18;;;;;;;20.70;7.32;;;;;;;;;;5003061;28;20050;-56
2021/09/04 00:34:45;;;;;;;23.13;8.18;;;;;;;;;;5007921;28;20105;-57
2021/09/04 00:37:21;;;;;;;24.30;7.82;;;;;;;;;;5005841;28;20038;-54
2021/09/04 00:39:48;;;;;;;17.63;7.40;;;;;;;;;;4987704;28;20038;-53
2021/09/04 00:42:18;;;;;;;20.53;7.77;;;;;;;;;;4988475;28;20034;-56
2021/09/04 00:44:45;;;;;;;25.40;7.63;;;;;;;;;;4985905;28;20034;-57
2021/09/04 00:47:20;;;;;;;20.15;7.38;;;;;;;;;;4988351;28;20053;-56
2021/09/04 00:49:51;;;;;;;19.42;7.50;;;;;;;;;;4984923;28;20051;-57
2021/09/04 00:52:18;;;;;;;21.63;7.82;;;;;;;;;;5007960;28;20100;-57
2021/09/04 00:54:45;;;;;;;21.50;7.30;;;;;;;;;;4981196;28;20120;-56
2021/09/04 00:57:12;;;;;;;21.20;7.78;;;;;;;;;;4968978;28;20055;-54
2021/09/04 00:59:38;;;;;;;22.90;8.50;;;;;;;;;;4989841;28;20050;-55
2021/09/04 01:02:05;;;;;;;20.58;7.22;;;;;;;;;;5007238;28;20034;-55
2021/09/04 01:04:33;;;;;;;17.88;7.10;;;;;;;;;;5002945;28;20111;-57
2021/09/04 01:07:07;;;;;;;19.30;7.45;;;;;;;;;;4982727;28;20075;-54
2021/09/04 01:09:33;;;;;;;17.17;6.60;;;;;;;;;;4948569;28;20031;-56
2021/09/04 01:12:00;;;;;;;19.15;7.22;;;;;;;;;;4982826;28;20043;-56
2021/09/04 01:14:26;;;;;;;19.42;6.93;;;;;;;;;;4976564;28;20046;-57
2021/09/04 01:17:01;;;;;;;18.23;6.50;;;;;;;;;;4988713;28;20117;-56
2021/09/04 01:19:27;;;;;;;17.38;6.07;;;;;;;;;;4983618;28;20038;-57
2021/09/04 01:21:55;;;;;;;22.58;7.07;;;;;;;;;;4967915;28;20167;-57
2021/09/04 01:24:21;;;;;;;16.50;7.03;;;;;;;;;;4953138;28;20050;-54
2021/09/04 01:26:50;;;;;;;22.88;7.47;;;;;;;;;;4986002;28;20292;-54
2021/09/04 01:29:19;;;;;;;25.13;6.43;;;;;;;;;;4984808;28;20038;-54
2021/09/04 01:31:45;;;;;;;18.83;7.03;;;;;;;;;;4968763;28;20023;-57
2021/09/04 01:34:12;;;;;;;17.75;6.95;;;;;;;;;;4984138;28;20043;-55
2021/09/04 01:36:41;;;;;;;20.85;7.00;;;;;;;;;;4949810;28;20039;-53
2021/09/04 01:39:08;;;;;;;17.25;6.50;;;;;;;;;;4966483;28;20035;-53
2021/09/04 01:41:35;;;;;;;17.05;5.93;;;;;;;;;;4979775;28;20109;-54
2021/09/04 01:44:03;;;;;;;16.58;6.28;;;;;;;;;;4969647;28;20120;-56
2021/09/04 01:46:30;;;;;;;17.42;6.68;;;;;;;;;;4965782;28;20050;-56
2021/09/04 01:48:58;;;;;;;19.92;6.97;;;;;;;;;;4969664;28;20079;-55
2021/09/04 01:51:25;;;;;;;17.50;6.50;;;;;;;;;;4955353;28;20027;-54
2021/09/04 01:53:51;;;;;;;17.50;6.85;;;;;;;;;;4967850;28;20051;-56
2021/09/04 01:56:18;;;;;;;15.05;6.18;;;;;;;;;;4981418;28;20030;-55
2021/09/04 01:58:48;;;;;;;20.83;6.70;;;;;;;;;;4986603;28;20090;-57
2021/09/04 02:01:16;;;;;;;15.43;6.32;;;;;;;;;;4977898;28;20061;-56
2021/09/04 02:03:42;;;;;;;21.30;6.60;;;;;;;;;;4969934;28;20087;-56
2021/09/04 02:06:08;;;;;;;15.52;6.53;;;;;;;;;;4968400;28;20374;-55
2021/09/04 02:08:39;;;;;;;16.65;6.40;;;;;;;;;;4986526;28;20049;-56
2021/09/04 02:11:06;;;;;;;18.15;6.07;;;;;;;;;;4977482;28;20141;-54
2021/09/04 02:13:32;;;;;;;18.58;6.15;;;;;;;;;;4988359;28;20129;-55
2021/09/04 02:15:59;;;;;;;19.15;6.72;;;;;;;;;;4984779;28;20120;-56
2021/09/04 02:18:33;;;;;;;16.58;6.50;;;;;;;;;;4969655;28;20046;-56
2021/09/04 02:21:00;;;;;;;18.45;7.20;;;;;;;;;;4987481;28;20055;-57
2021/09/04 02:23:26;;;;;;;14.10;6.07;;;;;;;;;;4967941;28;20046;-56
2021/09/04 02:25:53;;;;;;;18.15;6.78;;;;;;;;;;4970063;28;20121;-52
2021/09/04 02:28:28;;;;;;;16.77;6.32;;;;;;;;;;4985339;28;20059;-56
2021/09/04 02:30:55;;;;;;;20.10;6.93;;;;;;;;;;4970583;28;20031;-55
2021/09/04 02:33:21;;;;;;;23.60;6.93;;;;;;;;;;4967558;28;20049;-57
2021/09/04 02:35:49;;;;;;;18.08;7.03;;;;;;;;;;4969815;28;20031;-57
2021/09/04 02:38:32;;;;;;;15.57;6.97;;;;;;;;;;4974582;28;20046;-55
2021/09/04 02:40:58;;;;;;;16.83;7.10;;;;;;;;;;4987766;28;20372;-57
2021/09/04 02:43:25;;;;;;;18.73;6.88;;;;;;;;;;4974505;28;20050;-56
2021/09/04 02:45:51;;;;;;;16.10;6.97;;;;;;;;;;4987749;28;20111;-56
2021/09/04 02:48:37;;;;;;;20.98;7.20;;;;;;;;;;4966992;28;20097;-57
2021/09/04 02:51:05;;;;;;;18.90;7.13;;;;;;;;;;4970414;28;20047;-54
2021/09/04 02:53:31;;;;;;;20.70;7.17;;;;;;;;;;4963441;28;20122;-52
2021/09/04 02:55:58;;;;;;;20.00;7.18;;;;;;;;;;4969672;28;20042;-57
2021/09/04 02:58:26;;;;;;;21.27;7.22;;;;;;;;;;4966660;28;20046;-56
2021/09/04 03:00:52;;;;;;;20.88;7.75;;;;;;;;;;4969014;28;20038;-54
2021/09/04 03:03:19;;;;;;;21.70;7.85;;;;;;;;;;4983014;28;20043;-55
2021/09/04 03:05:45;;;;;;;20.13;8.00;;;;;;;;;;5004459;28;20037;-57
2021/09/04 03:08:18;;;;;;;24.17;8.32;;;;;;;;;;5002344;28;20034;-57
2021/09/04 03:10:45;;;;;;;23.63;8.25;;;;;;;;;;4983239;28;20045;-57
2021/09/04 03:13:11;;;;;;;21.65;7.57;;;;;;;;;;4966787;28;20039;-56
2021/09/04 03:15:38;;;;;;;20.15;8.80;;;;;;;;;;4969977;28;20087;-53
2021/09/04 03:18:05;;;;;;;20.88;7.65;;;;;;;;;;4986474;28;20047;-56
2021/09/04 03:20:31;;;;;;;20.67;7.47;;;;;;;;;;5000427;28;20119;-51
2021/09/04 03:22:57;;;;;;;21.58;7.72;;;;;;;;;;5005246;28;20034;-56
2021/09/04 03:25:25;;;;;;;26.90;8.38;;;;;;;;;;4984597;28;20039;-56
2021/09/04 03:27:53;;;;;;;18.30;7.63;;;;;;;;;;4986507;28;20113;-56
2021/09/04 03:30:20;;;;;;;21.03;8.07;;;;;;;;;;4982881;28;20023;-57
2021/09/04 03:32:46;;;;;;;17.85;8.02;;;;;;;;;;4985764;28;20031;-54
2021/09/04 03:35:12;;;;;;;20.70;8.45;;;;;;;;;;4983519;28;20030;-55
2021/09/04 03:38:03;;;;;;;22.20;8.57;;;;;;;;;;4987232;28;20058;-56
2021/09/04 03:40:31;;;;;;;20.60;8.52;;;;;;;;;;4911008;28;20040;-57
2021/09/04 03:42:58;;;;;;;21.27;9.00;;;;;;;;;;4969662;28;20038;-54
2021/09/04 03:45:24;;;;;;;19.25;7.75;;;;;;;;;;4966956;28;20112;-54
2021/09/04 03:47:52;;;;;;;22.85;7.97;;;;;;;;;;4969906;28;20031;-54
2021/09/04 03:50:18;;;;;;;29.02;8.27;;;;;;;;;;4967211;28;20058;-53
2021/09/04 03:52:45;;;;;;;21.90;8.23;;;;;;;;;;4986870;28;20095;-54
2021/09/04 03:55:11;;;;;;;20.13;7.75;;;;;;;;;;4976021;28;20082;-57
2021/09/04 03:57:47;;;;;;;25.42;9.40;;;;;;;;;;4985564;28;20031;-54
2021/09/04 04:00:14;;;;;;;21.35;8.05;;;;;;;;;;4982501;28;20050;-56
2021/09/04 04:02:41;;;;;;;23.80;8.90;;;;;;;;;;4986260;28;20050;-56
2021/09/04 04:05:08;;;;;;;20.83;8.30;;;;;;;;;;4984724;28;20075;-57
2021/09/04 04:07:41;;;;;;;21.10;8.32;;;;;;;;;;4963086;28;20042;-56
2021/09/04 04:10:08;;;;;;;21.63;8.40;;;;;;;;;;4968100;28;20055;-56
2021/09/04 04:12:38;;;;;;;21.45;8.77;;;;;;;;;;4980881;28;20089;-58
2021/09/04 04:15:06;;;;;;;21.83;9.38;;;;;;;;;;4985606;28;20030;-57
2021/09/04 04:17:38;;;;;;;19.92;7.50;;;;;;;;;;4965607;28;20031;-54
2021/09/04 04:20:05;;;;;;;26.80;9.38;;;;;;;;;;4966763;28;20035;-57
2021/09/04 04:22:31;;;;;;;20.33;8.75;;;;;;;;;;4976838;28;20085;-56
2021/09/04 04:24:58;;;;;;;20.63;9.02;;;;;;;;;;4985492;28;20038;-52
2021/09/04 04:27:26;;;;;;;22.02;9.15;;;;;;;;;;4970797;28;20049;-57
2021/09/04 04:29:53;;;;;;;18.20;8.68;;;;;;;;;;4966282;28;20054;-57
2021/09/04 04:32:21;;;;;;;21.83;8.88;;;;;;;;;;4972885;28;20045;-55
2021/09/04 04:34:47;;;;;;;17.07;8.07;;;;;;;;;;4984488;28;20054;-56
2021/09/04 04:37:20;;;;;;;19.02;8.05;;;;;;;;;;4981779;28;20308;-56
2021/09/04 04:39:46;;;;;;;23.40;8.63;;;;;;;;;;4983904;28;20042;-56
2021/09/04 04:42:14;;;;;;;18.77;8.70;;;;;;;;;;4974879;28;20055;-54
2021/09/04 04:44:41;;;;;;;19.90;8.25;;;;;;;;;;4966094;28;20035;-52
2021/09/04 04:47:08;;;;;;;24.67;8.73;;;;;;;;;;4962490;28;20062;-55
2021/09/04 04:49:36;;;;;;;21.38;9.13;;;;;;;;;;4960913;28;20046;-57
2021/09/04 04:52:03;;;;;;;18.15;8.27;;;;;;;;;;4968777;28;20046;-55
2021/09/04 04:54:29;;;;;;;22.73;8.48;;;;;;;;;;4967083;28;20027;-54
2021/09/04 04:57:08;;;;;;;21.92;8.88;;;;;;;;;;4968216;28;20035;-53
2021/09/04 04:59:35;;;;;;;18.15;7.57;;;;;;;;;;4983025;28;20023;-53
2021/09/04 05:02:01;;;;;;;17.55;8.02;;;;;;;;;;4988221;28;20051;-52
2021/09/04 05:04:28;;;;;;;18.83;9.65;;;;;;;;;;4983642;28;20082;-53
2021/09/04 05:06:57;;;;;;;20.92;8.05;;;;;;;;;;4989035;28;20115;-56
2021/09/04 05:09:23;;;;;;;21.42;8.45;;;;;;;;;;4984674;28;20050;-53
2021/09/04 05:11:50;;;;;;;19.10;8.10;;;;;;;;;;4973774;28;20047;-54
2021/09/04 05:14:16;;;;;;;22.33;8.88;;;;;;;;;;4976262;28;20106;-55
2021/09/04 05:16:50;;;;;;;21.05;8.35;;;;;;;;;;4970312;28;20038;-55
2021/09/04 05:19:17;;;;;;;23.73;8.63;;;;;;;;;;4993934;28;20038;-56
2021/09/04 05:21:43;;;;;;;18.90;8.98;;;;;;;;;;4989532;28;20040;-54
2021/09/04 05:24:11;;;;;;;21.25;8.55;;;;;;;;;;4995819;28;20070;-55
2021/09/04 05:26:38;;;;;;;21.93;9.33;;;;;;;;;;4987319;28;20265;-56
2021/09/04 05:29:04;;;;;;;24.10;8.70;;;;;;;;;;4987982;28;20288;-53
2021/09/04 05:31:31;;;;;;;22.48;8.43;;;;;;;;;;4990972;28;20031;-55
2021/09/04 05:33:58;;;;;;;23.05;8.18;;;;;;;;;;4984899;28;20042;-56
2021/09/04 05:36:28;;;;;;;24.00;8.05;;;;;;;;;;4986838;28;20062;-55
2021/09/04 05:38:55;;;;;;;17.98;7.50;;;;;;;;;;4986389;28;20050;-55
2021/09/04 05:41:23;;;;;;;22.40;7.97;;;;;;;;;;4971589;28;20081;-55
2021/09/04 05:43:49;;;;;;;19.40;8.82;;;;;;;;;;4971369;28;20041;-58
2021/09/04 05:46:16;;;;;;;23.58;9.23;;;;;;;;;;5001389;28;20039;-55
2021/09/04 05:48:42;;;;;;;24.73;9.52;;;;;;;;;;5007291;28;20038;-57
2021/09/04 05:51:09;;;;;;;17.05;7.25;;;;;;;;;;4986923;28;20112;-57
2021/09/04 05:53:38;;;;;;;21.60;8.98;;;;;;;;;;4990221;28;20049;-57
2021/09/04 05:56:05;;;;;;;17.55;8.00;;;;;;;;;;4987378;28;20034;-57
2021/09/04 05:58:41;;;;;;;22.70;7.78;;;;;;;;;;4990387;28;20038;-54
2021/09/04 06:01:08;;;;;;;18.42;8.73;;;;;;;;;;4984557;28;20048;-55
2021/09/04 06:03:34;;;;;;;21.40;8.48;;;;;;;;;;4990695;28;20046;-57
2021/09/04 06:06:00;;;;;;;18.70;7.90;;;;;;;;;;4993650;28;20035;-56
2021/09/04 06:08:33;;;;;;;24.13;8.60;;;;;;;;;;4987255;28;20031;-54
2021/09/04 06:10:59;;;;;;;23.38;8.52;;;;;;;;;;4978640;28;20042;-54
2021/09/04 06:13:26;;;;;;;21.25;8.20;;;;;;;;;;4969633;28;20038;-57
2021/09/04 06:15:53;;;;;;;21.80;8.07;;;;;;;;;;4966688;28;20047;-57
2021/09/04 06:18:35;;;;;;;18.87;8.17;;;;;;;;;;4970267;28;20041;-57
2021/09/04 06:21:02;;;;;;;19.63;8.25;;;;;;;;;;4972911;28;20096;-55
2021/09/04 06:23:28;;;;;;;22.88;8.52;;;;;;;;;;4989344;28;20030;-55
2021/09/04 06:25:55;;;;;;;17.38;7.68;;;;;;;;;;4985507;28;20044;-54
2021/09/04 06:28:23;;;;;;;22.83;8.45;;;;;;;;;;4986135;28;20150;-55
2021/09/04 06:30:50;;;;;;;19.35;7.78;;;;;;;;;;4986109;28;20044;-54
2021/09/04 06:33:18;;;;;;;19.55;8.05;;;;;;;;;;4987088;28;20034;-54
2021/09/04 06:35:44;;;;;;;19.07;7.90;;;;;;;;;;4985841;28;20120;-55
2021/09/04 06:38:11;;;;;;;15.93;6.63;;;;;;;;;;5001669;28;20042;-55
2021/09/04 06:40:37;;;;;;;20.48;7.65;;;;;;;;;;5009615;28;20038;-57
2021/09/04 06:43:06;;;;;;;17.50;8.32;;;;;;;;;;4976658;28;20046;-55
2021/09/04 06:45:32;;;;;;;16.77;6.97;;;;;;;;;;4961002;28;20038;-57
2021/09/04 06:48:14;;;;;;;20.23;7.55;;;;;;;;;;4994323;28;20135;-57
2021/09/04 06:50:44;;;;;;;16.50;7.03;;;;;;;;;;4990025;28;20120;-52
2021/09/04 06:53:11;;;;;;;16.75;8.02;;;;;;;;;;4973199;28;20034;-56
2021/09/04 06:55:37;;;;;;;19.83;7.80;;;;;;;;;;4994391;28;20046;-56
2021/09/04 06:58:34;;;;;;;16.83;7.35;;;;;;;;;;4994877;28;20108;-54
2021/09/04 07:01:00;;;;;;;20.35;7.20;;;;;;;;;;4988539;28;20034;-56
2021/09/04 07:03:27;;;;;;;20.67;7.75;;;;;;;;;;4975193;28;20042;-55
2021/09/04 07:05:55;;;;;;;22.20;7.78;;;;;;;;;;4969879;28;20042;-55
2021/09/04 07:08:21;;;;;;;17.30;7.43;;;;;;;;;;4975082;28;20123;-55
2021/09/04 07:10:48;;;;;;;17.33;7.15;;;;;;;;;;5007460;28;20286;-55
2021/09/04 07:13:14;;;;;;;18.98;7.47;;;;;;;;;;4986233;28;20050;-53
2021/09/04 07:15:41;;;;;;;18.88;7.65;;;;;;;;;;5005886;28;20121;-56
2021/09/04 07:18:08;;;;;;;18.27;7.20;;;;;;;;;;5000796;28;20108;-52
2021/09/04 07:20:35;;;;;;;17.90;7.10;;;;;;;;;;4984816;28;20034;-54
2021/09/04 07:23:03;;;;;;;17.88;7.47;;;;;;;;;;4983341;28;20093;-56
2021/09/04 07:25:30;;;;;;;18.25;7.32;;;;;;;;;;4984971;28;20041;-57
2021/09/04 07:28:24;;;;;;;18.08;7.05;;;;;;;;;;4986089;28;20057;-56
2021/09/04 07:30:50;;;;;;;18.50;6.70;;;;;;;;;;4940091;28;20162;-54
2021/09/04 07:33:17;;;;;;;20.27;6.63;;;;;;;;;;4976883;28;20066;-52
2021/09/04 07:35:43;;;;;;;18.33;7.55;;;;;;;;;;4979753;28;20136;-56
2021/09/04 07:38:12;;;;;;;18.50;7.50;;;;;;;;;;4982738;28;20031;-55
2021/09/04 07:40:38;;;;;;;19.08;7.47;;;;;;;;;;4978491;28;20046;-55
2021/09/04 07:43:07;;;;;;;17.50;7.30;;;;;;;;;;4979043;28;20137;-54
2021/09/04 07:45:34;;;;;;;16.02;7.13;;;;;;;;;;4979215;28;20050;-56
2021/09/04 07:48:02;;;;;;;13.32;6.75;;;;;;;;;;4978574;28;20050;-56
2021/09/04 07:50:28;;;;;;;14.55;7.13;;;;;;;;;;4994029;28;20046;-55
2021/09/04 07:52:55;;;;;;;18.23;6.97;;;;;;;;;;4999988;28;20055;-56
2021/09/04 07:55:23;;;;;;;18.73;7.55;;;;;;;;;;4994629;28;20050;-57
2021/09/04 07:57:50;;;;;;;16.08;6.90;;;;;;;;;;4969370;28;20065;-55
2021/09/04 08:00:17;;;;;;;18.90;7.80;;;;;;;;;;4986621;28;20051;-55
2021/09/04 08:02:44;;;;;;;16.63;6.78;;;;;;;;;;4983854;28;20022;-53
2021/09/04 08:05:11;;;;;;;15.90;6.57;;;;;;;;;;4988739;28;20089;-55
2021/09/04 08:07:45;;;;;;;18.00;7.05;;;;;;;;;;4988199;28;20034;-55
2021/09/04 08:10:11;;;;;;;16.10;6.63;;;;;;;;;;5001805;28;20050;-53
2021/09/04 08:12:39;;;;;;;19.38;6.15;;;;;;;;;;4988854;28;20030;-56
2021/09/04 08:15:14;;;;;;;17.05;6.30;;;;;;;;;;5000597;28;20038;-53
2021/09/04 08:17:49;;;;;;;17.80;6.78;;;;;;;;;;4997083;28;20038;-55
2021/09/04 08:20:16;;;;;;;22.60;6.93;;;;;;;;;;4999998;28;20094;-56
2021/09/04 08:22:42;;;;;;;15.63;6.60;;;;;;;;;;5019234;28;20045;-56
2021/09/04 08:25:09;;;;;;;17.35;6.60;;;;;;;;;;5000417;28;20049;-57
2021/09/04 08:27:37;;;;;;;18.08;6.63;;;;;;;;;;4998972;28;20046;-56
2021/09/04 08:30:05;;;;;;;19.58;7.25;;;;;;;;;;5000211;28;20059;-55
2021/09/04 08:32:31;;;;;;;;;;;;;;;;;;4995997;28;20038;-56
2021/09/04 08:34:58;;;;;;;17.75;6.72;;;;;;;;;;5015265;28;19930;-57
2021/09/04 08:37:24;;;;;;;19.08;6.70;;;;;;;;;;5011868;28;20050;-52
2021/09/04 08:39:51;;;;;;;17.73;7.00;;;;;;;;;;5017664;28;20054;-55
2021/09/04 08:42:18;;;;;;;17.67;7.10;;;;;;;;;;4995812;28;20049;-55
2021/09/04 08:44:44;;;;;;;19.05;7.30;;;;;;;;;;4983071;28;20062;-56
2021/09/04 08:47:13;;;;;;;17.60;8.20;;;;;;;;;;4985853;28;20078;-55
2021/09/04 08:49:39;;;;;;;18.35;8.27;;;;;;;;;;5000021;28;20205;-53
2021/09/04 08:52:07;;;;;;;17.50;8.32;;;;;;;;;;4995438;28;20042;-55
2021/09/04 08:54:33;;;;;;;18.60;7.63;;;;;;;;;;4985290;28;20124;-54
2021/09/04 08:57:00;;;;;;;20.30;8.15;;;;;;;;;;4998150;28;20096;-54
2021/09/04 08:59:27;;;;;;;22.95;8.27;;;;;;;;;;5001932;28;20042;-57
2021/09/04 09:01:53;;;;;;;22.80;9.00;;;;;;;;;;4998415;28;20101;-56
2021/09/04 09:04:23;;;;;;;19.20;8.85;;;;;;;;;;5017498;28;20339;-57
2021/09/04 09:06:50;;;;;;;21.13;8.80;;;;;;;;;;4982509;28;20124;-57
2021/09/04 09:09:18;;;;;;;20.67;8.23;;;;;;;;;;4960568;28;20129;-57
2021/09/04 09:11:45;;;;;;;19.20;7.47;;;;;;;;;;4972841;28;20038;-56
2021/09/04 09:14:11;;;;;;;18.10;8.43;;;;;;;;;;4964266;28;20106;-55
2021/09/04 09:16:48;;;;;;;16.23;7.65;;;;;;;;;;4982753;28;20061;-55
2021/09/04 09:19:15;;;;;;;21.88;8.38;;;;;;;;;;4949818;28;20130;-57
2021/09/04 09:21:42;;;;;;;21.17;8.15;;;;;;;;;;4961985;28;20313;-56
2021/09/04 09:24:10;;;;;;;17.40;8.43;;;;;;;;;;4958473;28;20134;-54
2021/09/04 09:26:45;;;;;;;24.65;8.48;;;;;;;;;;4945814;28;20285;-56
2021/09/04 09:29:16;;;;;;;20.02;8.73;;;;;;;;;;4943926;28;20047;-60
2021/09/04 09:31:43;;;;;;;17.25;7.70;;;;;;;;;;4945761;28;20128;-59
2021/09/04 09:34:10;;;;;;;23.95;11.73;;;;;;;;;;4949397;28;20042;-57
2021/09/04 09:36:51;;;;;;;18.55;7.78;;;;;;;;;;4959822;28;20046;-57
2021/09/04 09:39:18;;;;;;;21.35;7.43;;;;;;;;;;4954649;28;20043;-55
2021/09/04 09:41:48;;;;;;;21.50;8.30;;;;;;;;;;4968183;28;20062;-56
2021/09/04 09:44:19;;;;;;;17.23;7.75;;;;;;;;;;4957531;28;20054;-55
2021/09/04 09:46:49;;;;;;;20.00;7.50;;;;;;;;;;4948026;28;20043;-51
2021/09/04 09:49:25;;;;;;;18.05;8.00;;;;;;;;;;4945247;28;20067;-55
2021/09/04 09:51:55;;;;;;;17.05;7.53;;;;;;;;;;4947073;28;20099;-55
2021/09/04 09:54:22;;;;;;;16.52;8.20;;;;;;;;;;4946880;28;20043;-54
2021/09/04 09:56:48;;;;;;;21.83;7.20;;;;;;;;;;4984100;28;20053;-58
2021/09/04 09:59:15;;;;;;;16.63;7.95;;;;;;;;;;4964790;28;20071;-56
2021/09/04 10:01:42;;;;;;;18.05;7.85;;;;;;;;;;4968432;28;20050;-56
2021/09/04 10:04:10;;;;;;;16.88;8.73;;;;;;;;;;4965063;28;20047;-56
2021/09/04 10:06:37;;;;;;;14.68;7.25;;;;;;;;;;5000171;28;20078;-55
2021/09/04 10:09:06;;;;;;;17.75;7.63;;;;;;;;;;4985423;28;20034;-55
2021/09/04 10:11:35;;;;;;;23.80;8.90;;;;;;;;;;4970605;28;20051;-55
2021/09/04 10:14:01;;;;;;;;;;;;;;;;;;4966672;28;20042;-56
2021/09/04 10:16:30;;;;;;;17.73;7.70;;;;;;;;;;4978329;28;19968;-57
2021/09/04 10:18:57;;;;;;;16.33;7.25;;;;;;;;;;4986027;28;20038;-56
2021/09/04 10:21:26;;;;;;;16.38;8.27;;;;;;;;;;4982844;28;20064;-57
2021/09/04 10:23:54;;;;;;;17.13;6.82;;;;;;;;;;5002071;28;20042;-55
2021/09/04 10:26:29;;;;;;;16.52;7.15;;;;;;;;;;4989907;28;20127;-56
2021/09/04 10:28:57;;;;;;;19.08;7.45;;;;;;;;;;4986741;28;20045;-56
2021/09/04 10:31:46;;;;;;;14.50;6.80;;;;;;;;;;4989932;28;20042;-56
2021/09/04 10:34:13;;;;;;;27.45;8.07;;;;;;;;;;5001647;28;20038;-54
2021/09/04 10:36:53;;;;;;;16.50;7.60;;;;;;;;;;5000317;28;20119;-57
2021/09/04 10:39:21;;;;;;;14.45;7.25;;;;;;;;;;4985495;28;20046;-56
2021/09/04 10:41:49;;;;;;;14.55;6.18;;;;;;;;;;4979509;28;20031;-56
2021/09/04 10:44:16;;;;;;;19.10;7.07;;;;;;;;;;4983096;28;20042;-57
2021/09/04 10:46:49;;;;;;;15.07;6.82;;;;;;;;;;4985689;28;20037;-57
2021/09/04 10:49:35;;;;;;;17.52;6.57;;;;;;;;;;5003580;28;20052;-55
2021/09/04 10:52:03;;;;;;;17.65;6.35;;;;;;;;;;4994670;28;20050;-55
2021/09/04 10:55:02;;;;;;;15.50;6.20;;;;;;;;;;5003770;28;20046;-56
2021/09/04 10:57:50;;;;;;;14.73;5.97;;;;;;;;;;4992084;28;20066;-56
2021/09/04 11:00:21;;;;;;;13.02;5.47;;;;;;;;;;4982654;28;20046;-57
2021/09/04 11:02:49;;;;;;;15.60;5.70;;;;;;;;;;4990330;28;20042;-58
2021/09/04 11:05:39;;;;;;;18.13;5.68;;;;;;;;;;4987435;28;20027;-58
2021/09/04 11:08:10;;;;;;;15.80;5.63;;;;;;;;;;4965781;28;20126;-58
2021/09/04 11:10:39;;;;;;;14.45;5.32;;;;;;;;;;4953007;28;20059;-57
2021/09/04 11:13:25;;;;;;;12.23;5.75;;;;;;;;;;4961004;28;20173;-57
2021/09/04 11:15:51;;;;;;;17.38;6.18;;;;;;;;;;4966682;28;20035;-57
2021/09/04 11:18:19;;;;;;;11.10;5.45;;;;;;;;;;4961444;28;20094;-58
2021/09/04 11:20:46;;;;;;;11.38;5.25;;;;;;;;;;4965740;28;20038;-57
2021/09/04 11:23:22;;;;;;;15.43;5.93;;;;;;;;;;4962547;28;20052;-54
2021/09/04 11:25:49;;;;;;;13.13;5.40;;;;;;;;;;4982807;28;20117;-55
2021/09/04 11:28:15;;;;;;;15.88;5.57;;;;;;;;;;4974438;28;20047;-57
2021/09/04 11:30:49;;;;;;;17.60;5.88;;;;;;;;;;4966204;28;20027;-58
2021/09/04 11:33:16;;;;;;;13.70;6.32;;;;;;;;;;4975078;28;20039;-58
2021/09/04 11:35:45;;;;;;;13.73;5.43;;;;;;;;;;4965743;28;20034;-58
2021/09/04 11:38:12;;;;;;;14.25;5.40;;;;;;;;;;4995531;28;20049;-57
2021/09/04 11:40:40;;;;;;;16.65;5.13;;;;;;;;;;4965624;28;20034;-58
2021/09/04 11:43:06;;;;;;;16.60;5.95;;;;;;;;;;4963267;28;20066;-58
2021/09/04 11:45:34;;;;;;;16.35;5.32;;;;;;;;;;4982918;28;20035;-58
2021/09/04 11:48:04;;;;;;;14.90;5.50;;;;;;;;;;4983363;28;20047;-58
2021/09/04 11:50:32;;;;;;;19.38;5.63;;;;;;;;;;4944455;28;20051;-57
2021/09/04 11:52:58;;;;;;;11.65;5.22;;;;;;;;;;4963435;28;20075;-57
2021/09/04 11:55:25;;;;;;;15.23;5.82;;;;;;;;;;4952546;28;20030;-58
2021/09/04 11:57:56;;;;;;;14.25;4.88;;;;;;;;;;4982360;28;20058;-58
2021/09/04 12:00:23;;;;;;;13.32;5.15;;;;;;;;;;4973606;28;20049;-58
2021/09/04 12:02:50;;;;;;;13.30;5.18;;;;;;;;;;4972601;28;20129;-57
2021/09/04 12:05:19;;;;;;;14.68;5.65;;;;;;;;;;4987762;28;20124;-58
2021/09/04 12:07:47;;;;;;;11.35;4.75;;;;;;;;;;5004020;28;20060;-57
2021/09/04 12:10:15;;;;;;;14.65;5.28;;;;;;;;;;4988532;28;20082;-58
2021/09/04 12:12:42;;;;;;;12.93;5.05;;;;;;;;;;4972958;28;20113;-57
2021/09/04 12:15:16;;;;;;;13.60;5.30;;;;;;;;;;4983057;28;20050;-58
2021/09/04 12:17:52;;;;;;;19.63;5.60;;;;;;;;;;4985251;28;20167;-57
2021/09/04 12:20:19;;;;;;;11.27;5.22;;;;;;;;;;4978445;28;20043;-59
2021/09/04 12:22:46;;;;;;;12.50;5.05;;;;;;;;;;4980605;28;20038;-59
2021/09/04 12:25:25;;;;;;;12.93;4.43;;;;;;;;;;4989661;28;20116;-59
2021/09/04 12:27:58;;;;;;;9.50;4.53;;;;;;;;;;5005046;28;20041;-58
2021/09/04 12:30:26;;;;;;;11.98;4.85;;;;;;;;;;4994612;28;20042;-58
2021/09/04 12:33:01;;;;;;;12.15;4.93;;;;;;;;;;4982531;28;20050;-58
2021/09/04 12:35:46;;;;;;;13.90;5.00;;;;;;;;;;4985681;28;20046;-59
2021/09/04 12:38:15;;;;;;;10.15;4.93;;;;;;;;;;5022426;28;20065;-58
2021/09/04 12:40:57;;;;;;;12.07;4.60;;;;;;;;;;4996313;28;20038;-59
2021/09/04 12:43:23;;;;;;;11.65;4.60;;;;;;;;;;4984710;28;20414;-59
2021/09/04 12:45:59;;;;;;;13.23;4.95;;;;;;;;;;4977760;28;20054;-59
2021/09/04 12:48:29;;;;;;;11.38;5.03;;;;;;;;;;5020639;28;20050;-58
2021/09/04 12:51:08;;;;;;;11.60;4.72;;;;;;;;;;4989000;28;20066;-59
2021/09/04 12:53:34;;;;;;;12.82;5.25;;;;;;;;;;4981274;28;20111;-59
2021/09/04 12:56:01;;;;;;;11.10;4.68;;;;;;;;;;5010669;28;20050;-59
2021/09/04 12:58:27;;;;;;;15.65;5.25;;;;;;;;;;4983109;28;20127;-60
2021/09/04 13:01:06;;;;;;;15.27;5.05;;;;;;;;;;5001027;28;20046;-58
2021/09/04 13:03:32;;;;;;;12.15;5.22;;;;;;;;;;4984343;28;20038;-59
2021/09/04 13:05:59;;;;;;;16.65;5.40;;;;;;;;;;5001382;28;20086;-58
2021/09/04 13:08:26;;;;;;;14.70;5.43;;;;;;;;;;4998387;28;20049;-58
2021/09/04 13:10:52;;;;;;;13.13;5.65;;;;;;;;;;4983247;28;20054;-58
2021/09/04 13:13:19;;;;;;;11.93;5.60;;;;;;;;;;4983853;28;20034;-58
2021/09/04 13:15:46;;;;;;;12.75;5.97;;;;;;;;;;4993302;28;20046;-58
2021/09/04 13:18:15;;;;;;;13.48;5.82;;;;;;;;;;4983486;28;20050;-59
2021/09/04 13:20:41;;;;;;;12.82;5.63;;;;;;;;;;4987218;28;20129;-59
2021/09/04 13:23:08;;;;;;;16.75;5.45;;;;;;;;;;4991631;28;20040;-58
2021/09/04 13:25:34;;;;;;;12.70;5.53;;;;;;;;;;5007631;28;20050;-58
2021/09/04 13:28:01;;;;;;;15.32;6.30;;;;;;;;;;5002263;28;20054;-59
2021/09/04 13:30:27;;;;;;;12.60;5.18;;;;;;;;;;5024094;28;20038;-59
2021/09/04 13:32:54;;;;;;;13.30;5.28;;;;;;;;;;4997514;28;20050;-58
2021/09/04 13:35:22;;;;;;;18.88;5.75;;;;;;;;;;4985601;28;20169;-58
2021/09/04 13:37:49;;;;;;;21.23;6.07;;;;;;;;;;5001876;28;20188;-59
2021/09/04 13:40:15;;;;;;;12.02;5.38;;;;;;;;;;4987293;28;20038;-59
2021/09/04 13:42:42;;;;;;;17.40;5.65;;;;;;;;;;4984618;28;20038;-58
2021/09/04 13:45:08;;;;;;;13.27;5.72;;;;;;;;;;4987819;28;20046;-58
2021/09/04 13:47:35;;;;;;;13.38;5.10;;;;;;;;;;5003999;28;20053;-59
2021/09/04 13:50:02;;;;;;;12.13;5.30;;;;;;;;;;4984342;28;20054;-59
2021/09/04 13:52:32;;;;;;;13.60;5.18;;;;;;;;;;4987280;28;20031;-58
2021/09/04 13:54:59;;;;;;;15.00;5.93;;;;;;;;;;4998165;28;20046;-58
2021/09/04 13:57:25;;;;;;;12.98;5.70;;;;;;;;;;5007827;28;20107;-59
2021/09/04 13:59:52;;;;;;;15.05;5.75;;;;;;;;;;4988335;28;20030;-59
2021/09/04 14:02:18;;;;;;;14.43;5.45;;;;;;;;;;4989581;28;20038;-59
2021/09/04 14:04:45;;;;;;;14.20;5.38;;;;;;;;;;4980407;28;20055;-59
2021/09/04 14:07:15;;;;;;;13.85;5.45;;;;;;;;;;5004758;28;20049;-58
2021/09/04 14:09:43;;;;;;;12.48;5.70;;;;;;;;;;4982976;28;20138;-59
2021/09/04 14:12:09;;;;;;;12.60;5.50;;;;;;;;;;4992610;28;20101;-58
2021/09/04 14:14:36;;;;;;;15.68;5.72;;;;;;;;;;4983834;28;20053;-59
2021/09/04 14:17:02;;;;;;;15.30;5.80;;;;;;;;;;4987115;28;20057;-59
2021/09/04 14:19:29;;;;;;;10.20;5.30;;;;;;;;;;5000874;28;20071;-58
2021/09/04 14:21:56;;;;;;;12.45;5.13;;;;;;;;;;4985634;28;20050;-59
2021/09/04 14:24:22;;;;;;;11.55;6.03;;;;;;;;;;4998376;28;20161;-59
2021/09/04 14:26:50;;;;;;;12.68;5.38;;;;;;;;;;5004089;28;20128;-58
2021/09/04 14:29:17;;;;;;;13.10;5.30;;;;;;;;;;5002302;28;20050;-59
2021/09/04 14:31:43;;;;;;;13.93;5.65;;;;;;;;;;5000198;28;20063;-59
2021/09/04 14:34:10;;;;;;;11.13;5.43;;;;;;;;;;4986322;28;20034;-60
2021/09/04 14:36:36;;;;;;;12.27;5.32;;;;;;;;;;4982023;28;20062;-59
2021/09/04 14:39:03;;;;;;;14.23;5.40;;;;;;;;;;4986836;28;20038;-59